Latest Weather Observations for Casey*

IDT60801

Issued at 4:31 pm EST Sunday 2 August 2015 (issued every 30 minutes, with the page automatically refreshed every 10 minutes)

About weather observations | Map of weather stations | Latest weather observations for ANT | Other Formats
Station Details ID: 300017 Name: CASEY Lat: -66.28 Lon: 110.52 Height: 40.0 m
Data from the previous 72 hours. | See also: Recent months at Casey*
Date/Time
EST
Temp
°C
App
Temp
°C
Dew
Point
Rel
Hum
%
Delta-T
°C
Wind Press
QNH
hPa
Press
MSL
hPa
Rain
since 9 am
mm
Dir
 
Spd
km/h
Gust
km/h
Spd
kts
Gust
kts
02/04:30pm -21.1 -27.4 -27.5 56 - NNE 13 15 7 8 979.2 - -
02/04:00pm -21.7 -28.7 -26.0 68 - NE 17 19 9 10 980.1 980.7 -
02/03:30pm -21.0 -26.5 -25.3 68 - N 9 11 5 6 981.1 - -
02/03:00pm -20.7 -25.6 -26.4 60 - NNE 6 7 3 4 981.7 - -
02/02:30pm -19.5 -24.6 -27.0 51 - NE 7 7 4 4 982.8 - -
02/02:00pm -19.4 -23.2 -27.8 47 - CALM 0 0 0 0 983.8 - -
02/01:30pm -19.7 -23.5 -27.4 50 - CALM 0 0 0 0 984.8 - -
02/01:00pm -20.0 -25.1 -26.9 54 - S 7 9 4 5 985.7 986.2 -
02/12:30pm -20.3 -25.4 -26.6 57 - S 7 9 4 5 986.4 - -
02/12:00pm -20.9 -26.7 -25.7 65 - S 11 15 6 8 987.6 - -
02/11:30am -19.1 -24.6 -27.1 49 - NNE 9 13 5 7 988.5 - -
02/11:00am -20.3 -26.2 -26.2 59 - NNE 11 19 6 10 989.1 - -
02/10:30am -21.4 -27.2 -26.0 66 - NNE 11 15 6 8 990.1 - -
02/10:00am -21.5 -27.4 -26.8 62 - NE 11 17 6 9 991.3 991.8 -
02/09:30am -21.4 -26.3 -26.0 66 - NNW 6 11 3 6 992.1 - -
02/09:00am -21.5 -27.4 -26.6 63 - SE 11 19 6 10 992.0 - -
02/08:30am -21.3 -27.2 -27.5 57 - SSE 11 17 6 9 992.6 - -
02/08:00am -22.5 -29.5 -27.6 63 - SSE 17 24 9 13 992.3 - -
02/07:30am -22.6 -28.9 -28.6 58 - S 13 19 7 10 992.7 - -
02/07:00am -22.4 -29.1 -28.7 57 - S 15 30 8 16 992.8 993.3 -
02/06:30am -23.7 -32.1 -29.1 61 - S 24 30 13 16 993.9 - -
02/06:00am -23.7 -31.3 -29.4 59 - S 20 24 11 13 994.7 - -
02/05:30am -20.6 -26.9 -29.6 44 - SSE 13 26 7 14 995.0 - -
02/05:00am -21.9 -28.2 -30.1 47 - ENE 13 17 7 9 995.2 - -
02/04:30am -23.3 -30.4 -30.2 53 - SE 17 19 9 10 995.7 - -
02/04:00am -26.8 -34.3 -30.9 68 - SSE 19 22 10 12 996.0 996.5 -
02/03:30am -26.0 -31.9 -31.4 60 - SSE 11 17 6 9 996.0 - -
02/03:00am -24.6 -30.5 -30.6 57 - SSE 11 17 6 9 996.1 - -
02/02:30am -27.2 -34.8 -31.1 69 - SSE 20 26 11 14 996.3 - -
02/02:00am -26.2 -33.8 -30.3 68 - SSE 20 22 11 12 996.1 - -
02/01:30am -26.4 -33.8 -30.1 71 - S 19 22 10 12 996.0 - -
02/01:00am -26.9 -34.4 -30.7 70 - SSE 19 20 10 11 995.8 996.3 -
02/12:30am -27.0 -34.6 -30.6 71 - S 20 24 11 13 995.6 - -
02/12:00am -25.8 -33.2 -29.5 71 - ESE 19 20 10 11 995.4 - -
 
Date/Time
EST
Temp
°C
App
Temp
°C
Dew
Point
Rel
Hum
%
Delta-T
°C
Wind Press
QNH
hPa
Press
MSL
hPa
Rain
since 9 am
mm
Dir
 
Spd
km/h
Gust
km/h
Spd
kts
Gust
kts
01/11:30pm -27.0 -36.5 -30.3 74 - SSE 30 37 16 20 994.6 - -
01/11:00pm -26.0 -34.4 -29.7 71 - S 24 30 13 16 994.0 - -
01/10:30pm -25.6 -33.6 -29.4 70 - S 22 28 12 15 993.7 - -
01/10:00pm -26.8 -35.6 -30.7 70 - S 26 30 14 16 993.1 993.6 -
01/09:30pm -27.6 -37.1 -31.2 71 - S 30 35 16 19 992.2 - -
01/09:00pm -27.0 -36.5 -31.1 68 - SSE 30 35 16 19 992.6 - -
01/08:30pm -27.1 -35.9 -31.5 66 - S 26 32 14 17 992.3 - -
01/08:00pm -27.7 -37.7 -33.2 59 - SSE 32 39 17 21 991.3 - -
01/07:30pm -26.4 -36.4 -33.1 53 - SSE 32 35 17 19 989.8 - -
01/07:13pm -27.6 -38.5 -31.5 69 - SSE 37 41 20 22 989.4 - -
01/07:00pm -28.4 -38.5 -32.9 65 - S 33 39 18 21 989.4 989.9 -
01/06:30pm -28.7 -36.4 -33.3 65 - S 20 28 11 15 989.3 - -
01/06:00pm -28.3 -37.1 -33.3 62 - S 26 30 14 16 988.8 - -
01/05:30pm -28.0 -37.2 -32.8 63 - S 28 32 15 17 988.3 - -
01/05:00pm -28.9 -37.7 -33.7 63 - S 26 30 14 16 987.8 - -
01/04:30pm -27.0 -35.8 -32.9 57 - S 26 30 14 16 987.1 - -
01/04:00pm -28.1 -35.6 -34.1 56 - S 19 22 10 12 986.5 987.0 -
01/03:30pm -27.8 -34.5 -33.8 57 - S 15 19 8 10 985.9 - -
01/03:00pm -27.5 -33.5 -33.4 57 - SSE 11 13 6 7 985.2 - -
01/02:30pm -27.7 -34.4 -32.9 61 - SSE 15 17 8 9 984.9 - -
01/02:00pm -29.5 -36.6 -34.4 62 - SSE 17 20 9 11 984.4 - -
01/01:30pm -29.1 -35.5 -34.9 57 - S 13 17 7 9 984.0 - -
01/01:00pm -28.1 -34.1 -33.4 60 - SSE 11 13 6 7 983.9 984.4 -
01/12:30pm -28.9 -34.9 -34.3 60 - SSE 11 13 6 7 983.5 - -
01/12:00pm -29.4 -37.8 -34.0 64 - S 24 28 13 15 983.0 - -
01/11:30am -29.4 -37.5 -34.0 64 - SSE 22 28 12 15 982.8 - -
01/11:00am -29.3 -37.0 -34.1 63 - S 20 22 11 12 982.5 - -
01/10:30am -30.3 -38.0 -34.9 64 - S 20 24 11 13 982.3 - -
01/10:00am -29.5 -37.2 -33.9 66 - SSE 20 22 11 12 982.0 982.6 -
01/09:30am -29.9 -37.4 -34.6 64 - S 19 20 10 11 981.5 - -
01/09:00am -28.3 -35.0 -33.1 63 - S 15 17 8 9 980.9 - -
01/08:30am -29.5 -36.2 -34.7 61 - S 15 17 8 9 980.8 - -
01/08:00am -29.0 -35.4 -33.8 63 - SSE 13 15 7 8 980.3 - -
01/07:30am -28.8 -34.8 -34.1 60 - SSE 11 15 6 8 979.9 - -
01/07:00am -28.3 -34.3 -33.4 62 - SSE 11 15 6 8 979.4 980.0 -
01/06:30am -28.1 -35.6 -32.9 63 - SSE 19 20 10 11 979.0 - -
01/06:00am -25.8 -32.1 -32.5 53 - ESE 13 15 7 8 978.5 - -
01/05:30am -25.3 -32.8 -31.3 57 - NE 19 26 10 14 977.8 - -
01/05:00am -25.6 -32.7 -32.1 55 - ENE 17 22 9 12 977.4 - -
01/04:30am -25.1 -31.8 -31.5 55 - NE 15 17 8 9 976.9 - -
01/04:00am -26.1 -32.4 -32.2 57 - NE 13 17 7 9 976.7 977.2 -
01/03:30am -25.7 -30.9 -31.5 58 - ENE 7 17 4 9 976.3 - -
01/03:00am -27.5 -31.4 -32.2 64 - CALM 0 0 0 0 975.8 - -
01/02:30am -25.0 -32.1 -31.0 57 - NE 17 22 9 12 975.6 - -
01/02:00am -25.4 -33.8 -31.4 57 - ENE 24 30 13 16 975.4 - -
01/01:30am -26.2 -33.7 -32.0 58 - E 19 28 10 15 975.3 - -
01/01:00am -26.5 -34.2 -32.1 59 - E 20 26 11 14 975.0 975.5 -
01/12:30am -27.1 -32.7 -31.6 66 - SE 9 13 5 7 975.1 - -
01/12:00am -27.6 -33.6 -32.3 64 - SSE 11 11 6 6 974.7 - -
 
Date/Time
EST
Temp
°C
App
Temp
°C
Dew
Point
Rel
Hum
%
Delta-T
°C
Wind Press
QNH
hPa
Press
MSL
hPa
Rain
since 9 am
mm
Dir
 
Spd
km/h
Gust
km/h
Spd
kts
Gust
kts
31/11:30pm -27.0 -34.7 -31.7 64 - S 20 24 11 13 974.7 - -
31/11:00pm -24.2 -29.4 -30.1 58 - E 7 11 4 6 974.5 - -
31/10:30pm -24.6 -30.9 -30.4 59 - SE 13 17 7 9 974.2 - -
31/10:00pm -24.9 -32.9 -30.4 60 - E 22 28 12 15 974.2 974.7 -
31/09:30pm -26.0 -35.5 -30.8 64 - E 30 32 16 17 974.0 - -
31/09:00pm -25.4 -34.6 -30.3 64 - E 28 32 15 17 973.6 - -
31/08:30pm -25.1 -34.6 -29.7 65 - E 30 35 16 19 973.3 - -
31/08:00pm -25.1 -35.2 -29.3 68 - E 33 35 18 19 973.4 - -
31/07:30pm -24.1 -34.2 -27.8 71 - E 33 35 18 19 973.3 - -
31/07:00pm -23.2 -32.7 -26.7 73 - E 30 37 16 20 973.2 973.7 -
31/06:30pm -21.9 -28.9 -24.8 77 - NE 17 20 9 11 973.2 - -
31/06:00pm -21.5 -28.5 -24.7 75 - NE 17 20 9 11 972.9 - -
31/05:30pm -21.6 -27.8 -25.3 72 - ENE 13 15 7 8 972.7 - -
31/05:00pm -21.6 -27.4 -25.0 74 - NE 11 15 6 8 972.6 - -
31/04:30pm -21.5 -27.3 -25.0 73 - NNE 11 15 6 8 972.7 - -
31/04:00pm -21.4 -27.6 -24.9 73 - NNE 13 20 7 11 972.9 973.4 -
31/03:30pm -21.3 -27.9 -24.8 73 - NNE 15 20 8 11 973.0 - -
31/03:00pm -21.4 -28.7 -24.5 76 - NNE 19 26 10 14 973.2 - -
31/02:30pm -21.4 -28.9 -24.5 76 - NNE 20 26 11 14 973.6 - -
31/02:00pm -21.5 -29.8 -24.4 77 - NE 24 30 13 16 973.7 - -
31/01:30pm -21.4 -29.7 -24.2 78 - NE 24 30 13 16 974.0 - -
31/01:00pm -20.8 -28.3 -24.0 75 - NE 20 28 11 15 974.3 974.8 -
31/12:30pm -20.4 -28.3 -25.8 62 - N 22 30 12 16 974.3 - -
31/12:00pm -20.4 -28.0 -25.9 61 - N 20 28 11 15 974.7 - -
31/11:30am -20.4 -27.8 -25.4 64 - WNW 19 26 10 14 975.2 - -
31/11:00am -20.4 -27.4 -25.8 62 - NW 17 24 9 13 975.3 - -
31/10:30am -20.5 -27.9 -26.0 61 - NW 19 26 10 14 975.7 - -
31/10:00am -20.4 -28.0 -25.8 62 - NW 20 28 11 15 976.0 976.5 -
31/09:30am -20.4 -27.4 -25.9 61 - NW 17 22 9 12 976.4 - -
31/09:00am -20.2 -26.4 -24.4 69 - NNW 13 24 7 13 976.7 - -
31/08:30am -20.3 -25.4 -26.2 59 - NNW 7 17 4 9 977.3 - -
31/08:00am -20.3 -26.1 -26.0 60 - NW 11 19 6 10 977.6 - -
31/07:30am -20.2 -25.3 -25.6 62 - W 7 9 4 5 978.0 - -
31/07:00am -20.1 -27.5 -25.6 61 - WNW 19 20 10 11 978.6 979.2 -
31/06:30am -20.0 -27.0 -25.7 60 - NNW 17 20 9 11 978.8 - -
31/06:00am -20.1 -27.0 -24.3 69 - WNW 17 22 9 12 979.1 - -
31/05:30am -20.0 -27.3 -24.4 68 - W 19 20 10 11 979.6 - -
31/05:00am -19.9 -26.1 -24.8 65 - WSW 13 24 7 13 979.9 - -
31/04:30am -20.0 -27.3 -24.5 67 - WSW 19 24 10 13 980.4 - -
31/04:00am -19.8 -27.3 -24.5 66 - W 20 24 11 13 980.9 981.5 -
31/03:30am -19.5 -26.8 -24.0 67 - W 19 24 10 13 981.3 - -
31/03:00am -19.5 -27.4 -23.9 68 - W 22 30 12 16 981.8 - -
31/02:30am -19.0 -26.5 -22.9 71 - W 20 30 11 16 982.0 - -
31/02:00am -18.8 -24.2 -22.7 71 - WSW 9 20 5 11 982.4 - -
31/01:30am -19.3 -25.8 -22.9 73 - S 15 20 8 11 982.8 - -
31/01:00am -18.2 -26.0 -22.1 71 - W 22 26 12 14 983.1 983.7 -
31/12:30am -18.1 -25.9 -22.5 68 - W 22 28 12 15 983.5 - -
31/12:00am -17.8 -25.3 -22.1 69 - W 20 26 11 14 984.0 - -
 
Date/Time
EST
Temp
°C
App
Temp
°C
Dew
Point
Rel
Hum
%
Delta-T
°C
Wind Press
QNH
hPa
Press
MSL
hPa
Rain
since 9 am
mm
Dir
 
Spd
km/h
Gust
km/h
Spd
kts
Gust
kts
30/11:30pm -17.8 -25.1 -22.2 68 - W 19 22 10 12 984.2 - -
30/11:00pm -17.6 -24.5 -22.2 67 - W 17 20 9 11 984.6 - -
30/10:30pm -17.6 -24.5 -22.4 66 - W 17 20 9 11 984.8 - -
30/10:00pm -17.3 -22.1 -21.6 69 - N 6 11 3 6 985.1 985.6 -
30/09:30pm -17.7 -22.5 -21.0 75 - NE 6 11 3 6 985.2 - -
30/09:00pm -17.7 -23.4 -20.9 76 - NNE 11 15 6 8 985.5 - -
30/08:30pm -17.5 -23.2 -21.1 73 - NE 11 15 6 8 985.5 - -
30/08:00pm -17.5 -22.3 -21.1 73 - E 6 9 3 5 985.6 - -
30/07:30pm -17.5 -24.7 -21.1 73 - NE 19 20 10 11 985.6 - -
30/07:00pm -17.5 -23.2 -21.1 73 - NE 11 15 6 8 985.7 986.2 -

Other Formats:

Comma delimited format used in spreadsheet applications
http://www.bom.gov.au/fwo/IDT60803/IDT60803.89611.axf

JavaScript Object Notation format (JSON) in row-major order
http://www.bom.gov.au/fwo/IDT60803/IDT60803.89611.json